Torning, Denmark
Current Conditions -  °F | °C
As of 7:20 PM on Saturday 20 Dec 2014 (Local Time) from EKKA Reporting Station
Few Clouds Few Clouds  
Wind Chill: 32°   Ceiling: Unl
Heat Index: 41°   Visibility: 6mi
Dew Point: 36°   Wind: 20mph
Humidity: 81%   Direction: 300°WNW
Pressure: 29.65"   Gusts: NA
Location:  56.28°N, 9.33°E
Report Text: EKKA 201820Z AUTO 30017KT 9999NDV FEW018/// 05/02 Q1004
Loading
Personal Weather Stations






























Interactive Weather Map New forecast layout! Learn more

10-Day Weather Forecast

Advertisements
Track Severe Weather on mobile